createdAt,value
2017-02-26T00:01:55.007Z,0
2017-02-26T00:04:18.130Z,0
2017-02-26T00:06:41.294Z,0
2017-02-26T00:09:04.454Z,0
2017-02-26T00:11:27.497Z,0
2017-02-26T00:13:50.682Z,0
2017-02-26T00:18:23.430Z,0
2017-02-26T00:20:46.638Z,0
2017-02-26T00:23:09.801Z,0
2017-02-26T00:25:32.948Z,0
2017-02-26T00:29:57.228Z,0
2017-02-26T00:32:12.017Z,0
2017-02-26T00:34:35.178Z,0
2017-02-26T00:38:59.510Z,0
2017-02-26T00:43:23.728Z,0
2017-02-26T00:45:46.846Z,0
2017-02-26T00:48:02.646Z,0
2017-02-26T00:50:25.809Z,0
2017-02-26T00:52:48.850Z,0
2017-02-26T00:55:11.880Z,0
2017-02-26T00:57:26.578Z,0
2017-02-26T00:59:49.722Z,0
2017-02-26T01:02:04.492Z,0
2017-02-26T01:04:27.535Z,0
2017-02-26T01:08:51.697Z,0
2017-02-26T01:11:14.821Z,0
2017-02-26T01:13:29.574Z,0
2017-02-26T01:15:52.621Z,0
2017-02-26T01:18:15.672Z,0
2017-02-26T01:20:38.834Z,0
2017-02-26T01:23:01.893Z,0
2017-02-26T01:25:24.963Z,0
2017-02-26T01:27:39.631Z,0
2017-02-26T01:32:12.232Z,0
2017-02-26T01:34:35.376Z,0
2017-02-26T01:36:58.423Z,0
2017-02-26T01:39:21.481Z,0
2017-02-26T01:41:44.541Z,0
2017-02-26T01:44:07.608Z,0
2017-02-26T01:46:30.763Z,0
2017-02-26T01:50:29.574Z,0
2017-02-26T01:52:52.738Z,0
2017-02-26T01:59:26.391Z,0
2017-02-26T02:01:49.550Z,0
2017-02-26T02:04:12.692Z,0
2017-02-26T02:10:38.403Z,0
2017-02-26T02:13:01.502Z,0
2017-02-26T02:17:25.753Z,0
2017-02-26T02:19:48.863Z,0
2017-02-26T02:22:03.629Z,0
2017-02-26T02:24:18.295Z,0
2017-02-26T02:26:41.311Z,0
2017-02-26T02:29:04.393Z,0
2017-02-26T02:31:27.444Z,0
2017-02-26T02:33:50.475Z,0
2017-02-26T02:36:13.445Z,0
2017-02-26T02:38:36.526Z,0
2017-02-26T02:40:59.577Z,0
2017-02-26T02:43:22.603Z,0
2017-02-26T02:45:37.181Z,0
2017-02-26T02:48:00.169Z,0
2017-02-26T02:50:14.819Z,0
2017-02-26T02:52:37.869Z,0
2017-02-26T02:55:00.927Z,0
2017-02-26T02:57:23.990Z,0
2017-02-26T02:59:47.032Z,0
2017-02-26T03:02:10.107Z,0
2017-02-26T03:04:33.163Z,0
2017-02-26T03:06:56.217Z,0
2017-02-26T03:10:55.023Z,0
2017-02-26T03:13:18.077Z,0
2017-02-26T03:15:41.129Z,0
2017-02-26T03:21:40.974Z,0
2017-02-26T03:23:47.271Z,0
2017-02-26T03:26:10.299Z,0
2017-02-26T03:30:42.919Z,0
2017-02-26T03:33:05.957Z,0
2017-02-26T03:35:29.010Z,0
2017-02-26T03:37:52.072Z,0
2017-02-26T03:40:15.130Z,0
2017-02-26T03:44:39.251Z,0
2017-02-26T03:46:53.904Z,0
2017-02-26T03:49:16.938Z,0
2017-02-26T03:53:41.198Z,0
2017-02-26T03:56:04.195Z,0
2017-02-26T04:04:14.127Z,0
2017-02-26T04:06:37.160Z,0
2017-02-26T04:13:19.275Z,0
2017-02-26T04:15:42.357Z,0
2017-02-26T04:19:41.162Z,0
2017-02-26T04:22:04.218Z,0
2017-02-26T04:24:27.289Z,0
2017-02-26T04:26:50.328Z,0
2017-02-26T04:29:13.384Z,0
2017-02-26T04:31:36.446Z,0
2017-02-26T04:36:09.058Z,0
2017-02-26T04:42:08.965Z,0
2017-02-26T04:44:23.559Z,0
2017-02-26T04:46:46.587Z,0
2017-02-26T04:49:01.280Z,0
2017-02-26T04:51:24.320Z,0
2017-02-26T04:53:47.398Z,0
2017-02-26T04:56:10.449Z,0
2017-02-26T04:58:33.500Z,0
2017-02-26T05:00:56.570Z,0
2017-02-26T05:03:19.510Z,0
2017-02-26T05:05:42.569Z,0
2017-02-26T05:08:05.633Z,0
2017-02-26T05:10:28.698Z,0
2017-02-26T05:12:52.754Z,0
2017-02-26T05:15:15.735Z,0
2017-02-26T05:17:30.387Z,0
2017-02-26T05:19:54.476Z,0
2017-02-26T05:22:17.535Z,0
2017-02-26T05:24:32.211Z,0
2017-02-26T05:26:55.269Z,0
2017-02-26T05:29:18.320Z,0
2017-02-26T05:33:42.518Z,0
2017-02-26T05:35:48.800Z,0
2017-02-26T05:38:11.835Z,0
2017-02-26T05:40:34.877Z,0
2017-02-26T05:42:49.561Z,0
2017-02-26T05:45:12.597Z,0
2017-02-26T05:47:35.659Z,0
2017-02-26T05:49:58.734Z,0
2017-02-26T05:52:13.450Z,0
2017-02-26T05:54:36.432Z,0
2017-02-26T05:56:59.491Z,0
2017-02-26T05:59:22.549Z,0
2017-02-26T06:01:45.494Z,0
2017-02-26T06:06:09.639Z,0
2017-02-26T06:08:32.674Z,0
2017-02-26T06:10:47.333Z,0
2017-02-26T06:13:01.987Z,0
2017-02-26T06:15:16.555Z,0
2017-02-26T06:17:39.475Z,0
2017-02-26T06:20:02.573Z,0
2017-02-26T06:22:25.712Z,0
2017-02-26T06:24:48.772Z,0
2017-02-26T06:27:11.859Z,0
2017-02-26T06:29:34.889Z,5
2017-02-26T06:31:49.565Z,5
2017-02-26T06:36:05.332Z,5
2017-02-26T06:38:28.416Z,5
2017-02-26T06:40:42.985Z,5
2017-02-26T06:43:05.910Z,5
2017-02-26T06:45:28.979Z,5
2017-02-26T06:47:52.043Z,5
2017-02-26T06:50:15.112Z,5
2017-02-26T06:52:38.169Z,10
2017-02-26T06:54:52.857Z,10
2017-02-26T06:57:15.737Z,10
2017-02-26T06:59:38.700Z,15
2017-02-26T07:01:53.429Z,15
2017-02-26T07:04:16.435Z,15
2017-02-26T07:06:39.500Z,15
2017-02-26T07:09:02.589Z,15
2017-02-26T07:11:25.637Z,15
2017-02-26T07:13:48.689Z,15
2017-02-26T07:16:11.736Z,15
2017-02-26T07:20:28.109Z,10
2017-02-26T07:22:51.223Z,10
2017-02-26T07:25:14.279Z,10
2017-02-26T07:27:37.338Z,10
2017-02-26T07:31:36.139Z,10
2017-02-26T07:33:59.206Z,10
2017-02-26T07:36:22.260Z,10
2017-02-26T07:38:45.324Z,10
2017-02-26T07:41:08.358Z,10
2017-02-26T07:43:31.439Z,10
2017-02-26T07:45:54.493Z,10
2017-02-26T07:48:17.541Z,10
2017-02-26T07:50:40.602Z,10
2017-02-26T07:53:03.663Z,10
2017-02-26T07:57:30.236Z,10
2017-02-26T07:59:53.400Z,15
2017-02-26T08:02:16.563Z,15
2017-02-26T08:12:35.808Z,15
2017-02-26T08:19:09.576Z,20
2017-02-26T08:21:32.707Z,20
2017-02-26T08:23:55.868Z,25
2017-02-26T08:26:19.007Z,25
2017-02-26T08:28:42.178Z,25
2017-02-26T08:31:05.335Z,25
2017-02-26T08:33:28.500Z,30
2017-02-26T08:35:51.671Z,30
2017-02-26T08:38:14.825Z,35
2017-02-26T08:42:47.596Z,40
2017-02-26T08:45:10.793Z,45
2017-02-26T08:49:09.725Z,100
2017-02-26T08:51:33.005Z,190
2017-02-26T08:59:17.459Z,205
2017-02-26T09:01:24.107Z,180
2017-02-26T09:09:42.652Z,70
2017-02-26T09:12:06.088Z,65
2017-02-26T09:14:29.545Z,65
2017-02-26T09:16:52.908Z,65
2017-02-26T09:19:07.858Z,65
2017-02-26T09:21:22.822Z,65
2017-02-26T09:23:46.200Z,60
2017-02-26T09:26:09.556Z,65
2017-02-26T09:28:32.909Z,60
2017-02-26T09:30:39.489Z,60
2017-02-26T09:33:02.741Z,60
2017-02-26T09:35:17.722Z,55
2017-02-26T09:37:41.082Z,55
2017-02-26T09:42:14.125Z,60
2017-02-26T09:44:29.085Z,55
2017-02-26T09:48:53.589Z,45
2017-02-26T09:51:08.537Z,45
2017-02-26T09:53:31.907Z,45
2017-02-26T09:55:55.254Z,45
2017-02-26T09:58:18.533Z,50
2017-02-26T10:00:41.908Z,50
2017-02-26T10:03:05.277Z,50
2017-02-26T10:05:28.649Z,55
2017-02-26T10:07:43.609Z,55
2017-02-26T10:12:16.642Z,60
2017-02-26T10:14:31.700Z,60
2017-02-26T10:16:55.052Z,65
2017-02-26T10:19:18.422Z,65
2017-02-26T10:21:41.891Z,70
2017-02-26T10:24:05.364Z,75
2017-02-26T10:26:28.828Z,75
2017-02-26T10:28:52.319Z,75
2017-02-26T10:31:15.806Z,75
2017-02-26T10:35:40.557Z,75
2017-02-26T10:38:04.053Z,85
2017-02-26T10:40:27.528Z,80
2017-02-26T10:42:51.006Z,90
2017-02-26T10:45:14.508Z,100
2017-02-26T10:47:38.050Z,95
2017-02-26T10:50:01.623Z,90
2017-02-26T10:52:25.190Z,85
2017-02-26T10:54:48.665Z,85
2017-02-26T10:57:12.874Z,85
2017-02-26T10:59:28.009Z,85
2017-02-26T11:01:51.585Z,80
2017-02-26T11:04:15.154Z,80
2017-02-26T11:06:38.754Z,75
2017-02-26T11:08:53.918Z,75
2017-02-26T11:11:19.518Z,80
2017-02-26T11:13:43.140Z,90
2017-02-26T11:16:06.656Z,60
2017-02-26T11:18:30.605Z,85
2017-02-26T11:20:54.943Z,90
2017-02-26T11:23:19.627Z,85
2017-02-26T11:25:43.105Z,90
2017-02-26T11:28:06.680Z,85
2017-02-26T11:30:31.304Z,80
2017-02-26T11:32:54.840Z,75
2017-02-26T11:35:18.413Z,70
2017-02-26T11:37:42.240Z,70
2017-02-26T11:40:05.928Z,70
2017-02-26T11:42:29.430Z,65
2017-02-26T11:44:53.212Z,65
2017-02-26T11:47:16.840Z,70
2017-02-26T11:49:40.425Z,70
2017-02-26T11:52:04.005Z,70
2017-02-26T11:54:27.582Z,70
2017-02-26T11:56:51.131Z,70
2017-02-26T11:59:14.720Z,80
2017-02-26T12:01:38.265Z,80
2017-02-26T12:04:01.854Z,80
2017-02-26T12:06:25.443Z,80
2017-02-26T12:08:49.042Z,75
2017-02-26T12:11:12.529Z,70
2017-02-26T12:13:36.150Z,75
2017-02-26T12:15:51.278Z,85
2017-02-26T12:18:14.938Z,85
2017-02-26T12:22:48.793Z,80
2017-02-26T12:25:12.520Z,80
2017-02-26T12:27:36.168Z,80
2017-02-26T12:29:43.026Z,80
2017-02-26T12:32:06.734Z,80
2017-02-26T12:34:30.398Z,75
2017-02-26T12:38:55.342Z,75
2017-02-26T12:41:18.999Z,75
2017-02-26T12:43:42.665Z,70
2017-02-26T12:48:16.075Z,70
2017-02-26T12:52:15.520Z,65
2017-02-26T12:58:41.756Z,65
2017-02-26T13:01:05.444Z,65
2017-02-26T13:03:29.122Z,65
2017-02-26T13:05:52.781Z,65
2017-02-26T13:08:16.479Z,65
2017-02-26T13:10:40.123Z,60
2017-02-26T13:13:04.316Z,60
2017-02-26T13:15:36.334Z,60
2017-02-26T13:18:00.048Z,60
2017-02-26T13:20:23.729Z,60
2017-02-26T13:22:47.263Z,60
2017-02-26T13:25:10.956Z,60
2017-02-26T13:27:34.680Z,60
2017-02-26T13:29:49.915Z,60
2017-02-26T13:34:14.834Z,60
2017-02-26T13:36:38.490Z,55
2017-02-26T13:41:11.833Z,55
2017-02-26T13:43:36.178Z,55
2017-02-26T13:45:59.871Z,55
2017-02-26T13:48:23.563Z,55
2017-02-26T13:50:47.211Z,55
2017-02-26T13:55:12.142Z,55
2017-02-26T14:01:29.949Z,55
2017-02-26T14:03:53.575Z,55
2017-02-26T14:08:26.853Z,50
2017-02-26T14:10:50.445Z,50
2017-02-26T14:13:14.015Z,50
2017-02-26T14:15:37.695Z,50
2017-02-26T14:18:01.372Z,50
2017-02-26T14:20:25.055Z,50
2017-02-26T14:22:48.731Z,50
2017-02-26T14:25:12.385Z,50
2017-02-26T14:27:36.067Z,50
2017-02-26T14:29:59.723Z,50
2017-02-26T14:32:14.915Z,50
2017-02-26T14:34:38.467Z,50
2017-02-26T14:37:02.065Z,50
2017-02-26T14:39:17.293Z,50
2017-02-26T14:41:32.478Z,50
2017-02-26T14:43:56.073Z,50
2017-02-26T14:46:19.729Z,50
2017-02-26T14:48:26.483Z,50
2017-02-26T14:50:50.085Z,50
2017-02-26T14:53:13.754Z,50
2017-02-26T14:55:37.335Z,50
2017-02-26T14:58:01.000Z,50
2017-02-26T15:00:24.656Z,45
2017-02-26T15:02:31.431Z,45
2017-02-26T15:04:38.213Z,45
2017-02-26T15:07:01.794Z,45
2017-02-26T15:09:25.463Z,45
2017-02-26T15:11:40.647Z,45
2017-02-26T15:14:04.312Z,45
2017-02-26T15:16:27.899Z,45
2017-02-26T15:18:51.557Z,45
2017-02-26T15:21:15.215Z,45
2017-02-26T15:23:38.790Z,45
2017-02-26T15:25:53.964Z,45
2017-02-26T15:28:17.541Z,45
2017-02-26T15:30:41.111Z,40
2017-02-26T15:35:05.929Z,40
2017-02-26T15:37:29.508Z,40
2017-02-26T15:39:53.164Z,40
2017-02-26T15:42:16.737Z,40
2017-02-26T15:44:40.313Z,40
2017-02-26T15:47:03.978Z,40
2017-02-26T15:49:27.667Z,35
2017-02-26T15:51:42.819Z,35
2017-02-26T15:53:57.988Z,35
2017-02-26T15:56:21.557Z,35
2017-02-26T16:00:46.338Z,30
2017-02-26T16:03:09.953Z,30
2017-02-26T16:09:19.008Z,30
2017-02-26T16:11:42.680Z,25
2017-02-26T16:14:06.259Z,25
2017-02-26T16:16:21.400Z,25
2017-02-26T16:18:45.004Z,25
2017-02-26T16:21:08.558Z,20
2017-02-26T16:23:32.133Z,20
2017-02-26T16:25:55.752Z,20
2017-02-26T16:28:19.472Z,20
2017-02-26T16:30:43.046Z,15
2017-02-26T16:32:58.200Z,15
2017-02-26T16:39:25.065Z,15
2017-02-26T16:43:49.863Z,10
2017-02-26T16:46:13.466Z,10
2017-02-26T16:48:37.045Z,10
2017-02-26T16:50:52.185Z,5
2017-02-26T16:55:16.891Z,5
2017-02-26T16:59:33.145Z,0
2017-02-26T17:01:56.707Z,0
2017-02-26T17:04:20.169Z,0
2017-02-26T17:06:35.224Z,0
2017-02-26T17:08:58.707Z,0
2017-02-26T17:11:22.180Z,0
2017-02-26T17:15:55.366Z,0
2017-02-26T17:18:18.874Z,0
2017-02-26T17:20:42.421Z,0
2017-02-26T17:23:05.869Z,0
2017-02-26T17:25:29.353Z,0
2017-02-26T17:29:53.990Z,0
2017-02-26T17:32:17.524Z,0
2017-02-26T17:36:16.774Z,0
2017-02-26T17:38:41.228Z,0
2017-02-26T17:41:04.711Z,0
2017-02-26T17:43:28.162Z,0
2017-02-26T17:45:51.571Z,0
2017-02-26T17:48:15.101Z,0
2017-02-26T17:50:38.586Z,0
2017-02-26T17:53:02.043Z,0
2017-02-26T17:55:25.513Z,0
2017-02-26T17:57:48.971Z,0
2017-02-26T18:02:13.653Z,0
2017-02-26T18:04:38.084Z,0
2017-02-26T18:07:08.497Z,0
2017-02-26T18:11:07.783Z,0
2017-02-26T18:13:31.279Z,0
2017-02-26T18:15:54.790Z,0
2017-02-26T18:18:18.237Z,0
2017-02-26T18:20:41.677Z,0
2017-02-26T18:22:56.757Z,0
2017-02-26T18:25:20.280Z,0
2017-02-26T18:27:43.711Z,0
2017-02-26T18:32:08.465Z,0
2017-02-26T18:34:31.876Z,0
2017-02-26T18:36:55.322Z,0
2017-02-26T18:39:19.773Z,0
2017-02-26T18:41:43.186Z,0
2017-02-26T18:44:06.590Z,0
2017-02-26T18:46:30.947Z,0
2017-02-26T18:48:54.336Z,0
2017-02-26T18:51:24.373Z,0
2017-02-26T18:53:48.742Z,0
2017-02-26T18:56:12.289Z,0
2017-02-26T18:58:35.676Z,0
2017-02-26T19:00:58.947Z,0
2017-02-26T19:03:22.357Z,0
2017-02-26T19:05:46.788Z,0
2017-02-26T19:08:10.235Z,0
2017-02-26T19:10:49.427Z,0
2017-02-26T19:13:21.406Z,0
2017-02-26T19:15:45.848Z,0
2017-02-26T19:18:09.214Z,0
2017-02-26T19:20:32.628Z,0
2017-02-26T19:22:56.117Z,0
2017-02-26T19:25:19.525Z,0
2017-02-26T19:27:42.844Z,0
2017-02-26T19:30:06.243Z,0
2017-02-26T19:32:29.712Z,0
2017-02-26T19:34:53.066Z,0
2017-02-26T19:37:16.510Z,0
2017-02-26T19:39:39.882Z,0
2017-02-26T19:42:03.263Z,0
2017-02-26T19:44:26.653Z,0
2017-02-26T19:46:50.087Z,0
2017-02-26T19:49:13.503Z,0
2017-02-26T19:51:37.117Z,0
2017-02-26T19:54:00.417Z,0
2017-02-26T19:56:24.163Z,0
2017-02-26T19:58:47.428Z,0
2017-02-26T20:01:12.054Z,0
2017-02-26T20:03:35.473Z,0
2017-02-26T20:05:58.887Z,0
2017-02-26T20:08:22.334Z,0
2017-02-26T20:10:45.797Z,0
2017-02-26T20:15:19.429Z,0
2017-02-26T20:17:42.903Z,0
2017-02-26T20:20:06.351Z,0
2017-02-26T20:22:29.821Z,0
2017-02-26T20:24:53.286Z,0
2017-02-26T20:27:16.636Z,0
2017-02-26T20:29:40.032Z,0
2017-02-26T20:33:39.280Z,0
2017-02-26T20:35:54.326Z,0
2017-02-26T20:38:09.378Z,0
2017-02-26T20:40:32.732Z,0
2017-02-26T20:42:56.118Z,0
2017-02-26T20:45:11.181Z,0
2017-02-26T20:47:34.652Z,0
2017-02-26T20:49:58.123Z,0
2017-02-26T20:52:21.580Z,0
2017-02-26T20:54:45.052Z,0
2017-02-26T20:57:08.556Z,0
2017-02-26T21:01:41.635Z,0
2017-02-26T21:04:05.099Z,0
2017-02-26T21:06:28.558Z,0
2017-02-26T21:10:28.857Z,0
2017-02-26T21:12:52.373Z,0
2017-02-26T21:15:15.851Z,0
2017-02-26T21:19:32.090Z,0
2017-02-26T21:21:55.527Z,0
2017-02-26T21:24:18.989Z,0
2017-02-26T21:26:42.457Z,0
2017-02-26T21:29:05.910Z,0
2017-02-26T21:31:29.395Z,0
2017-02-26T21:35:46.681Z,0
2017-02-26T21:38:10.110Z,0
2017-02-26T21:40:33.576Z,0
2017-02-26T21:42:48.622Z,0
2017-02-26T21:45:12.124Z,0
2017-02-26T21:47:35.587Z,0
2017-02-26T21:49:59.068Z,0
2017-02-26T21:52:22.502Z,0
2017-02-26T21:54:37.570Z,0
2017-02-26T21:57:01.038Z,0
2017-02-26T21:59:24.548Z,0
2017-02-26T22:01:47.996Z,0
2017-02-26T22:04:11.407Z,0
2017-02-26T22:06:34.929Z,0
2017-02-26T22:08:58.396Z,0
2017-02-26T22:11:13.454Z,0
2017-02-26T22:13:36.910Z,0
2017-02-26T22:16:00.394Z,0
2017-02-26T22:22:26.180Z,0
2017-02-26T22:24:49.614Z,0
2017-02-26T22:29:14.250Z,0
2017-02-26T22:31:29.284Z,0
2017-02-26T22:33:52.770Z,0
2017-02-26T22:36:16.231Z,0
2017-02-26T22:38:31.294Z,0
2017-02-26T22:40:54.774Z,0
2017-02-26T22:43:18.241Z,0
2017-02-26T22:47:43.009Z,0
2017-02-26T22:50:14.399Z,0
2017-02-26T22:56:48.688Z,0
2017-02-26T22:59:12.115Z,0
2017-02-26T23:01:35.596Z,0
2017-02-26T23:03:50.642Z,0
2017-02-26T23:06:14.111Z,0
2017-02-26T23:10:38.737Z,0
2017-02-26T23:15:12.321Z,0
2017-02-26T23:17:35.807Z,0
2017-02-26T23:19:59.290Z,0
2017-02-26T23:22:14.357Z,0
2017-02-26T23:24:37.825Z,0
2017-02-26T23:29:02.358Z,0
2017-02-26T23:31:17.396Z,0
2017-02-26T23:33:40.875Z,0
2017-02-26T23:36:04.327Z,0
2017-02-26T23:38:27.800Z,0
2017-02-26T23:40:42.886Z,0
2017-02-26T23:43:06.336Z,0
2017-02-26T23:45:29.704Z,0
2017-02-26T23:47:44.663Z,0
2017-02-26T23:50:08.149Z,0
2017-02-26T23:52:31.622Z,0
2017-02-26T23:56:56.251Z,0
2017-02-26T23:59:11.272Z,0
